Archival Weather

Tokyo Intl

Tokyo, Japan (RJTT)

Report from: Saturday, April 1, 2023 1:00 AM JST
Current time: Friday, July 19, 2024 11:55 AM JST

Current weather – Weather history – Daily summaries
Weather forecast

Temperature13.0°C (55.4°F)
Dew point9.0°C (48.2°F)
Winds 5 kts (2.6 m/s, 5.8 mph) West (270°)
Clouds Sky clear
Altimeter29.97 in.Hg (1015 mB)
Relative humidity77 %
Density altitude-133 ft. (-41 m)
Remarks Ceiling and visibility OK
No significant changes expected in the next two hours
Flight conditions Visual Meteorological Conditions
Raw dataRJTT 311600Z 27005KT CAVOK 13/09 Q1015 NOSIG RMK A3000
An error has occurred. This application may no longer respond until reloaded. Reload 🗙